sensor_id;sensor_type;location;lat;lon;timestamp;P1;durP1;ratioP1;P2;durP2;ratioP2
56299;SDS011;42209;6.376;-10.782;2023-02-16T00:01:58;13.35;;;8.90;;
56299;SDS011;42209;6.376;-10.782;2023-02-16T00:04:48;13.30;;;9.60;;
56299;SDS011;42209;6.376;-10.782;2023-02-16T00:09:45;15.68;;;10.50;;
56299;SDS011;42209;6.376;-10.782;2023-02-16T00:12:17;16.45;;;10.15;;
56299;SDS011;42209;6.376;-10.782;2023-02-16T00:14:47;11.02;;;8.27;;
56299;SDS011;42209;6.376;-10.782;2023-02-16T00:17:16;15.52;;;9.60;;
56299;SDS011;42209;6.376;-10.782;2023-02-16T00:19:44;14.30;;;9.82;;
56299;SDS011;42209;6.376;-10.782;2023-02-16T00:22:12;14.68;;;9.68;;
56299;SDS011;42209;6.376;-10.782;2023-02-16T00:24:41;15.75;;;9.60;;
56299;SDS011;42209;6.376;-10.782;2023-02-16T00:27:13;14.20;;;10.40;;
56299;SDS011;42209;6.376;-10.782;2023-02-16T00:29:42;14.07;;;9.85;;
56299;SDS011;42209;6.376;-10.782;2023-02-16T00:32:13;14.35;;;9.18;;
56299;SDS011;42209;6.376;-10.782;2023-02-16T00:34:43;18.50;;;8.57;;
56299;SDS011;42209;6.376;-10.782;2023-02-16T00:37:15;13.50;;;8.48;;
56299;SDS011;42209;6.376;-10.782;2023-02-16T00:39:43;16.42;;;10.45;;
56299;SDS011;42209;6.376;-10.782;2023-02-16T00:44:46;13.38;;;10.05;;
56299;SDS011;42209;6.376;-10.782;2023-02-16T00:50:09;16.45;;;9.35;;
56299;SDS011;42209;6.376;-10.782;2023-02-16T00:52:46;15.77;;;9.18;;
56299;SDS011;42209;6.376;-10.782;2023-02-16T00:57:49;16.33;;;8.55;;
56299;SDS011;42209;6.376;-10.782;2023-02-16T01:00:24;15.48;;;10.10;;
56299;SDS011;42209;6.376;-10.782;2023-02-16T01:02:59;17.35;;;9.88;;
56299;SDS011;42209;6.376;-10.782;2023-02-16T01:05:29;12.60;;;8.80;;
56299;SDS011;42209;6.376;-10.782;2023-02-16T01:07:58;14.52;;;9.75;;
56299;SDS011;42209;6.376;-10.782;2023-02-16T01:15:25;18.77;;;9.38;;
56299;SDS011;42209;6.376;-10.782;2023-02-16T01:17:54;12.65;;;8.90;;
56299;SDS011;42209;6.376;-10.782;2023-02-16T01:20:23;15.85;;;9.07;;
56299;SDS011;42209;6.376;-10.782;2023-02-16T01:22:54;14.35;;;8.73;;
56299;SDS011;42209;6.376;-10.782;2023-02-16T01:25:23;13.90;;;8.50;;
56299;SDS011;42209;6.376;-10.782;2023-02-16T01:27:51;14.38;;;8.70;;
56299;SDS011;42209;6.376;-10.782;2023-02-16T01:30:20;13.63;;;8.02;;
56299;SDS011;42209;6.376;-10.782;2023-02-16T01:32:50;14.57;;;8.00;;
56299;SDS011;42209;6.376;-10.782;2023-02-16T01:35:20;13.68;;;8.55;;
56299;SDS011;42209;6.376;-10.782;2023-02-16T01:37:50;14.88;;;9.00;;
56299;SDS011;42209;6.376;-10.782;2023-02-16T01:40:25;16.83;;;9.90;;
56299;SDS011;42209;6.376;-10.782;2023-02-16T01:45:33;16.17;;;8.88;;
56299;SDS011;42209;6.376;-10.782;2023-02-16T01:48:05;14.77;;;8.13;;
56299;SDS011;42209;6.376;-10.782;2023-02-16T01:50:46;14.07;;;8.95;;
56299;SDS011;42209;6.376;-10.782;2023-02-16T01:53:21;12.02;;;8.77;;
56299;SDS011;42209;6.376;-10.782;2023-02-16T01:55:57;16.45;;;9.77;;
56299;SDS011;42209;6.376;-10.782;2023-02-16T02:04:01;15.77;;;8.65;;
56299;SDS011;42209;6.376;-10.782;2023-02-16T02:06:35;14.80;;;8.70;;
56299;SDS011;42209;6.376;-10.782;2023-02-16T02:09:09;15.05;;;8.77;;
56299;SDS011;42209;6.376;-10.782;2023-02-16T02:11:56;14.95;;;7.95;;
56299;SDS011;42209;6.376;-10.782;2023-02-16T02:14:38;17.10;;;8.43;;
56299;SDS011;42209;6.376;-10.782;2023-02-16T02:17:11;14.27;;;9.02;;
56299;SDS011;42209;6.376;-10.782;2023-02-16T02:22:51;15.73;;;8.63;;
56299;SDS011;42209;6.376;-10.782;2023-02-16T02:28:25;12.80;;;8.02;;
56299;SDS011;42209;6.376;-10.782;2023-02-16T02:34:00;18.08;;;8.65;;
56299;SDS011;42209;6.376;-10.782;2023-02-16T02:44:43;17.67;;;8.75;;
56299;SDS011;42209;6.376;-10.782;2023-02-16T02:47:15;16.08;;;9.52;;
56299;SDS011;42209;6.376;-10.782;2023-02-16T02:49:50;11.95;;;7.63;;
56299;SDS011;42209;6.376;-10.782;2023-02-16T02:52:20;16.52;;;8.65;;
56299;SDS011;42209;6.376;-10.782;2023-02-16T02:54:49;14.45;;;8.48;;
56299;SDS011;42209;6.376;-10.782;2023-02-16T02:57:30;12.02;;;7.47;;
56299;SDS011;42209;6.376;-10.782;2023-02-16T03:00:09;18.15;;;8.70;;
56299;SDS011;42209;6.376;-10.782;2023-02-16T03:02:40;14.85;;;8.30;;
56299;SDS011;42209;6.376;-10.782;2023-02-16T03:05:10;16.17;;;9.70;;
56299;SDS011;42209;6.376;-10.782;2023-02-16T03:07:42;14.23;;;7.82;;
56299;SDS011;42209;6.376;-10.782;2023-02-16T03:10:16;15.05;;;8.77;;
56299;SDS011;42209;6.376;-10.782;2023-02-16T03:12:48;15.55;;;8.40;;
56299;SDS011;42209;6.376;-10.782;2023-02-16T03:15:16;17.63;;;8.70;;
56299;SDS011;42209;6.376;-10.782;2023-02-16T03:17:44;13.98;;;8.30;;
56299;SDS011;42209;6.376;-10.782;2023-02-16T03:20:13;14.20;;;8.63;;
56299;SDS011;42209;6.376;-10.782;2023-02-16T03:22:43;15.20;;;8.88;;
56299;SDS011;42209;6.376;-10.782;2023-02-16T03:25:12;13.90;;;8.13;;
56299;SDS011;42209;6.376;-10.782;2023-02-16T03:27:41;18.85;;;9.07;;
56299;SDS011;42209;6.376;-10.782;2023-02-16T03:30:10;18.88;;;9.60;;
56299;SDS011;42209;6.376;-10.782;2023-02-16T03:32:40;16.73;;;8.82;;
56299;SDS011;42209;6.376;-10.782;2023-02-16T03:35:10;14.50;;;8.20;;
56299;SDS011;42209;6.376;-10.782;2023-02-16T03:37:39;16.60;;;7.82;;
56299;SDS011;42209;6.376;-10.782;2023-02-16T03:40:09;15.00;;;8.82;;
56299;SDS011;42209;6.376;-10.782;2023-02-16T03:42:46;14.70;;;9.38;;
56299;SDS011;42209;6.376;-10.782;2023-02-16T03:45:18;14.20;;;7.60;;
56299;SDS011;42209;6.376;-10.782;2023-02-16T03:47:49;17.33;;;9.23;;
56299;SDS011;42209;6.376;-10.782;2023-02-16T03:50:17;14.63;;;9.10;;
56299;SDS011;42209;6.376;-10.782;2023-02-16T03:52:46;17.38;;;8.73;;
56299;SDS011;42209;6.376;-10.782;2023-02-16T03:55:14;15.90;;;8.38;;
56299;SDS011;42209;6.376;-10.782;2023-02-16T03:57:42;14.40;;;7.57;;
56299;SDS011;42209;6.376;-10.782;2023-02-16T04:00:11;12.55;;;8.93;;
56299;SDS011;42209;6.376;-10.782;2023-02-16T04:05:08;15.13;;;8.68;;
56299;SDS011;42209;6.376;-10.782;2023-02-16T04:07:36;20.00;;;8.73;;
56299;SDS011;42209;6.376;-10.782;2023-02-16T04:10:04;16.45;;;8.13;;
56299;SDS011;42209;6.376;-10.782;2023-02-16T04:15:05;14.13;;;8.25;;
56299;SDS011;42209;6.376;-10.782;2023-02-16T04:17:35;16.02;;;8.25;;
56299;SDS011;42209;6.376;-10.782;2023-02-16T04:22:32;14.63;;;8.30;;
56299;SDS011;42209;6.376;-10.782;2023-02-16T04:25:01;12.95;;;8.75;;
56299;SDS011;42209;6.376;-10.782;2023-02-16T04:27:29;17.63;;;8.50;;
56299;SDS011;42209;6.376;-10.782;2023-02-16T04:29:57;17.30;;;8.50;;
56299;SDS011;42209;6.376;-10.782;2023-02-16T04:32:26;14.98;;;8.02;;
56299;SDS011;42209;6.376;-10.782;2023-02-16T04:34:54;15.18;;;7.78;;
56299;SDS011;42209;6.376;-10.782;2023-02-16T04:37:22;16.65;;;8.05;;
56299;SDS011;42209;6.376;-10.782;2023-02-16T04:39:51;14.15;;;7.50;;
56299;SDS011;42209;6.376;-10.782;2023-02-16T04:42:19;16.08;;;8.75;;
56299;SDS011;42209;6.376;-10.782;2023-02-16T04:44:47;13.68;;;8.23;;
56299;SDS011;42209;6.376;-10.782;2023-02-16T04:47:16;13.50;;;7.97;;
56299;SDS011;42209;6.376;-10.782;2023-02-16T04:49:44;14.65;;;8.02;;
56299;SDS011;42209;6.376;-10.782;2023-02-16T04:52:15;15.80;;;7.75;;
56299;SDS011;42209;6.376;-10.782;2023-02-16T04:54:44;13.93;;;8.05;;
56299;SDS011;42209;6.376;-10.782;2023-02-16T04:57:12;15.43;;;8.10;;
56299;SDS011;42209;6.376;-10.782;2023-02-16T04:59:40;17.70;;;7.63;;
56299;SDS011;42209;6.376;-10.782;2023-02-16T05:02:09;15.90;;;8.40;;
56299;SDS011;42209;6.376;-10.782;2023-02-16T05:04:37;13.48;;;7.20;;
56299;SDS011;42209;6.376;-10.782;2023-02-16T05:09:34;13.25;;;7.85;;
56299;SDS011;42209;6.376;-10.782;2023-02-16T05:12:03;16.27;;;7.57;;
56299;SDS011;42209;6.376;-10.782;2023-02-16T05:14:32;12.85;;;7.13;;
56299;SDS011;42209;6.376;-10.782;2023-02-16T05:17:02;15.85;;;7.15;;
56299;SDS011;42209;6.376;-10.782;2023-02-16T05:19:30;15.77;;;7.35;;
56299;SDS011;42209;6.376;-10.782;2023-02-16T05:21:59;17.55;;;7.90;;
56299;SDS011;42209;6.376;-10.782;2023-02-16T05:24:27;12.23;;;6.78;;
56299;SDS011;42209;6.376;-10.782;2023-02-16T05:26:55;15.85;;;8.05;;
56299;SDS011;42209;6.376;-10.782;2023-02-16T05:29:24;12.45;;;7.10;;
56299;SDS011;42209;6.376;-10.782;2023-02-16T05:31:52;15.45;;;8.13;;
56299;SDS011;42209;6.376;-10.782;2023-02-16T05:36:48;14.77;;;7.20;;
56299;SDS011;42209;6.376;-10.782;2023-02-16T05:39:20;14.60;;;7.35;;
56299;SDS011;42209;6.376;-10.782;2023-02-16T05:42:00;17.50;;;7.13;;
56299;SDS011;42209;6.376;-10.782;2023-02-16T05:44:29;11.40;;;6.90;;
56299;SDS011;42209;6.376;-10.782;2023-02-16T05:46:57;10.48;;;5.60;;
56299;SDS011;42209;6.376;-10.782;2023-02-16T05:49:31;14.75;;;6.80;;
56299;SDS011;42209;6.376;-10.782;2023-02-16T05:52:00;13.75;;;7.20;;
56299;SDS011;42209;6.376;-10.782;2023-02-16T05:54:28;13.25;;;7.35;;
56299;SDS011;42209;6.376;-10.782;2023-02-16T05:56:56;12.65;;;6.78;;
56299;SDS011;42209;6.376;-10.782;2023-02-16T05:59:25;16.05;;;6.50;;
56299;SDS011;42209;6.376;-10.782;2023-02-16T06:01:53;11.32;;;6.63;;
56299;SDS011;42209;6.376;-10.782;2023-02-16T06:04:21;12.27;;;6.75;;
56299;SDS011;42209;6.376;-10.782;2023-02-16T06:06:49;13.60;;;7.03;;
56299;SDS011;42209;6.376;-10.782;2023-02-16T06:09:18;13.70;;;7.95;;
56299;SDS011;42209;6.376;-10.782;2023-02-16T06:11:46;11.77;;;6.43;;
56299;SDS011;42209;6.376;-10.782;2023-02-16T06:14:16;8.90;;;6.35;;
56299;SDS011;42209;6.376;-10.782;2023-02-16T06:16:46;10.70;;;6.15;;
56299;SDS011;42209;6.376;-10.782;2023-02-16T06:19:16;14.95;;;6.45;;
56299;SDS011;42209;6.376;-10.782;2023-02-16T06:21:46;14.40;;;7.05;;
56299;SDS011;42209;6.376;-10.782;2023-02-16T06:24:38;13.63;;;7.32;;
56299;SDS011;42209;6.376;-10.782;2023-02-16T06:27:09;13.15;;;7.75;;
56299;SDS011;42209;6.376;-10.782;2023-02-16T06:29:39;13.30;;;6.78;;
56299;SDS011;42209;6.376;-10.782;2023-02-16T06:32:12;11.88;;;6.80;;
56299;SDS011;42209;6.376;-10.782;2023-02-16T06:34:41;12.18;;;6.55;;
56299;SDS011;42209;6.376;-10.782;2023-02-16T06:37:14;16.10;;;7.53;;
56299;SDS011;42209;6.376;-10.782;2023-02-16T06:39:43;12.75;;;6.18;;
56299;SDS011;42209;6.376;-10.782;2023-02-16T06:42:11;12.88;;;6.82;;
56299;SDS011;42209;6.376;-10.782;2023-02-16T06:44:39;14.35;;;6.43;;
56299;SDS011;42209;6.376;-10.782;2023-02-16T06:47:16;9.95;;;6.10;;
56299;SDS011;42209;6.376;-10.782;2023-02-16T06:49:50;12.63;;;6.97;;
56299;SDS011;42209;6.376;-10.782;2023-02-16T06:52:19;14.77;;;7.47;;
56299;SDS011;42209;6.376;-10.782;2023-02-16T06:54:47;12.65;;;6.50;;
56299;SDS011;42209;6.376;-10.782;2023-02-16T06:57:15;13.60;;;6.10;;
56299;SDS011;42209;6.376;-10.782;2023-02-16T06:59:43;12.95;;;7.18;;
56299;SDS011;42209;6.376;-10.782;2023-02-16T07:02:11;9.93;;;6.05;;
56299;SDS011;42209;6.376;-10.782;2023-02-16T07:04:39;9.63;;;6.07;;
56299;SDS011;42209;6.376;-10.782;2023-02-16T07:07:08;13.77;;;7.28;;
56299;SDS011;42209;6.376;-10.782;2023-02-16T07:09:36;14.52;;;7.55;;
56299;SDS011;42209;6.376;-10.782;2023-02-16T07:14:33;16.13;;;7.80;;
56299;SDS011;42209;6.376;-10.782;2023-02-16T07:17:01;15.20;;;7.57;;
56299;SDS011;42209;6.376;-10.782;2023-02-16T07:19:30;15.25;;;7.05;;
56299;SDS011;42209;6.376;-10.782;2023-02-16T07:26:58;15.05;;;7.45;;
56299;SDS011;42209;6.376;-10.782;2023-02-16T07:29:27;17.73;;;7.95;;
56299;SDS011;42209;6.376;-10.782;2023-02-16T07:31:56;18.38;;;7.40;;
56299;SDS011;42209;6.376;-10.782;2023-02-16T07:34:24;13.13;;;6.63;;
56299;SDS011;42209;6.376;-10.782;2023-02-16T07:37:14;14.05;;;7.10;;
56299;SDS011;42209;6.376;-10.782;2023-02-16T07:39:49;16.63;;;8.10;;
56299;SDS011;42209;6.376;-10.782;2023-02-16T07:42:23;16.05;;;7.05;;
56299;SDS011;42209;6.376;-10.782;2023-02-16T07:44:57;19.27;;;7.70;;
56299;SDS011;42209;6.376;-10.782;2023-02-16T07:47:25;17.48;;;7.43;;
56299;SDS011;42209;6.376;-10.782;2023-02-16T07:49:54;10.80;;;6.57;;
56299;SDS011;42209;6.376;-10.782;2023-02-16T07:52:25;15.20;;;6.82;;
56299;SDS011;42209;6.376;-10.782;2023-02-16T07:55:03;13.40;;;7.65;;
56299;SDS011;42209;6.376;-10.782;2023-02-16T08:00:00;15.05;;;8.35;;
56299;SDS011;42209;6.376;-10.782;2023-02-16T08:02:37;15.68;;;7.85;;
56299;SDS011;42209;6.376;-10.782;2023-02-16T08:05:06;16.83;;;8.02;;
56299;SDS011;42209;6.376;-10.782;2023-02-16T08:07:35;17.58;;;6.72;;
56299;SDS011;42209;6.376;-10.782;2023-02-16T08:10:03;20.42;;;9.88;;
56299;SDS011;42209;6.376;-10.782;2023-02-16T08:12:32;15.93;;;7.43;;
56299;SDS011;42209;6.376;-10.782;2023-02-16T08:15:01;15.52;;;6.93;;
56299;SDS011;42209;6.376;-10.782;2023-02-16T08:17:30;17.88;;;7.90;;
56299;SDS011;42209;6.376;-10.782;2023-02-16T08:19:58;15.68;;;8.55;;
56299;SDS011;42209;6.376;-10.782;2023-02-16T08:22:28;15.27;;;7.45;;
56299;SDS011;42209;6.376;-10.782;2023-02-16T08:24:56;18.50;;;8.02;;
56299;SDS011;42209;6.376;-10.782;2023-02-16T08:27:25;15.30;;;7.70;;
56299;SDS011;42209;6.376;-10.782;2023-02-16T08:29:53;18.80;;;8.05;;
56299;SDS011;42209;6.376;-10.782;2023-02-16T08:32:21;16.70;;;7.78;;
56299;SDS011;42209;6.376;-10.782;2023-02-16T08:34:50;19.45;;;7.65;;
56299;SDS011;42209;6.376;-10.782;2023-02-16T08:37:18;17.58;;;8.40;;
56299;SDS011;42209;6.376;-10.782;2023-02-16T08:39:46;19.50;;;8.30;;
56299;SDS011;42209;6.376;-10.782;2023-02-16T08:42:14;21.08;;;10.98;;
56299;SDS011;42209;6.376;-10.782;2023-02-16T08:44:43;19.35;;;8.38;;
56299;SDS011;42209;6.376;-10.782;2023-02-16T08:47:11;17.55;;;8.07;;
56299;SDS011;42209;6.376;-10.782;2023-02-16T08:49:40;16.08;;;9.18;;
56299;SDS011;42209;6.376;-10.782;2023-02-16T08:52:08;26.70;;;9.50;;
56299;SDS011;42209;6.376;-10.782;2023-02-16T08:54:40;21.75;;;9.35;;
56299;SDS011;42209;6.376;-10.782;2023-02-16T08:57:08;23.77;;;8.77;;
56299;SDS011;42209;6.376;-10.782;2023-02-16T08:59:36;19.40;;;9.18;;
56299;SDS011;42209;6.376;-10.782;2023-02-16T09:02:05;19.38;;;8.80;;
56299;SDS011;42209;6.376;-10.782;2023-02-16T09:04:33;23.77;;;9.52;;
56299;SDS011;42209;6.376;-10.782;2023-02-16T09:07:01;19.27;;;9.68;;
56299;SDS011;42209;6.376;-10.782;2023-02-16T09:11:58;21.77;;;9.90;;
56299;SDS011;42209;6.376;-10.782;2023-02-16T09:14:26;15.43;;;8.32;;
56299;SDS011;42209;6.376;-10.782;2023-02-16T09:16:54;19.90;;;8.50;;
56299;SDS011;42209;6.376;-10.782;2023-02-16T09:19:23;17.60;;;8.55;;
56299;SDS011;42209;6.376;-10.782;2023-02-16T09:21:51;14.75;;;7.88;;
56299;SDS011;42209;6.376;-10.782;2023-02-16T09:24:19;15.77;;;7.30;;
56299;SDS011;42209;6.376;-10.782;2023-02-16T09:26:48;16.73;;;8.77;;
56299;SDS011;42209;6.376;-10.782;2023-02-16T09:29:16;16.23;;;8.85;;
56299;SDS011;42209;6.376;-10.782;2023-02-16T09:31:44;18.65;;;9.52;;
56299;SDS011;42209;6.376;-10.782;2023-02-16T09:34:14;17.70;;;9.40;;
56299;SDS011;42209;6.376;-10.782;2023-02-16T09:36:45;17.77;;;9.13;;
56299;SDS011;42209;6.376;-10.782;2023-02-16T09:39:14;17.55;;;8.38;;
56299;SDS011;42209;6.376;-10.782;2023-02-16T09:47:03;19.88;;;8.93;;
56299;SDS011;42209;6.376;-10.782;2023-02-16T09:49:41;20.88;;;10.15;;
56299;SDS011;42209;6.376;-10.782;2023-02-16T09:55:11;17.30;;;8.82;;
56299;SDS011;42209;6.376;-10.782;2023-02-16T10:00:20;20.83;;;9.15;;
56299;SDS011;42209;6.376;-10.782;2023-02-16T10:08:37;14.18;;;8.30;;
56299;SDS011;42209;6.376;-10.782;2023-02-16T10:11:16;17.25;;;9.13;;
56299;SDS011;42209;6.376;-10.782;2023-02-16T10:13:48;15.68;;;8.20;;
56299;SDS011;42209;6.376;-10.782;2023-02-16T10:16:22;16.40;;;8.40;;
56299;SDS011;42209;6.376;-10.782;2023-02-16T10:18:57;16.90;;;9.13;;
56299;SDS011;42209;6.376;-10.782;2023-02-16T10:21:29;18.70;;;9.27;;
56299;SDS011;42209;6.376;-10.782;2023-02-16T10:24:04;17.95;;;9.27;;
56299;SDS011;42209;6.376;-10.782;2023-02-16T10:29:12;14.25;;;8.05;;
56299;SDS011;42209;6.376;-10.782;2023-02-16T10:32:09;17.45;;;7.53;;
56299;SDS011;42209;6.376;-10.782;2023-02-16T10:34:45;18.90;;;8.80;;
56299;SDS011;42209;6.376;-10.782;2023-02-16T10:48:24;15.88;;;7.65;;
56299;SDS011;42209;6.376;-10.782;2023-02-16T10:51:05;16.08;;;7.45;;
56299;SDS011;42209;6.376;-10.782;2023-02-16T10:53:38;14.18;;;7.35;;
56299;SDS011;42209;6.376;-10.782;2023-02-16T10:58:52;17.60;;;8.27;;
56299;SDS011;42209;6.376;-10.782;2023-02-16T11:01:21;17.48;;;7.68;;
56299;SDS011;42209;6.376;-10.782;2023-02-16T11:04:02;14.75;;;7.47;;
56299;SDS011;42209;6.376;-10.782;2023-02-16T11:09:01;17.88;;;8.35;;
56299;SDS011;42209;6.376;-10.782;2023-02-16T11:11:39;14.23;;;7.90;;
56299;SDS011;42209;6.376;-10.782;2023-02-16T11:14:20;17.42;;;7.78;;
56299;SDS011;42209;6.376;-10.782;2023-02-16T11:19:38;18.63;;;7.88;;
56299;SDS011;42209;6.376;-10.782;2023-02-16T11:22:28;14.88;;;7.68;;
56299;SDS011;42209;6.376;-10.782;2023-02-16T11:25:09;14.77;;;6.93;;
56299;SDS011;42209;6.376;-10.782;2023-02-16T11:27:49;16.40;;;7.47;;
56299;SDS011;42209;6.376;-10.782;2023-02-16T11:30:30;16.45;;;8.05;;
56299;SDS011;42209;6.376;-10.782;2023-02-16T11:33:04;16.85;;;7.40;;
56299;SDS011;42209;6.376;-10.782;2023-02-16T11:35:48;16.02;;;7.65;;
56299;SDS011;42209;6.376;-10.782;2023-02-16T11:40:56;14.20;;;6.55;;
56299;SDS011;42209;6.376;-10.782;2023-02-16T11:43:27;17.00;;;7.63;;
56299;SDS011;42209;6.376;-10.782;2023-02-16T11:46:02;14.70;;;6.53;;
56299;SDS011;42209;6.376;-10.782;2023-02-16T11:48:39;14.13;;;6.95;;
56299;SDS011;42209;6.376;-10.782;2023-02-16T11:51:09;16.60;;;7.63;;
56299;SDS011;42209;6.376;-10.782;2023-02-16T11:53:40;16.60;;;7.25;;
56299;SDS011;42209;6.376;-10.782;2023-02-16T11:56:20;17.27;;;6.13;;
56299;SDS011;42209;6.376;-10.782;2023-02-16T11:59:05;14.80;;;6.40;;
56299;SDS011;42209;6.376;-10.782;2023-02-16T12:04:48;15.70;;;5.57;;
56299;SDS011;42209;6.376;-10.782;2023-02-16T12:07:49;13.90;;;6.18;;
56299;SDS011;42209;6.376;-10.782;2023-02-16T12:10:56;18.48;;;7.82;;
56299;SDS011;42209;6.376;-10.782;2023-02-16T12:16:34;15.48;;;6.38;;
56299;SDS011;42209;6.376;-10.782;2023-02-16T12:19:21;18.15;;;7.53;;
56299;SDS011;42209;6.376;-10.782;2023-02-16T12:21:52;15.75;;;7.50;;
56299;SDS011;42209;6.376;-10.782;2023-02-16T12:30:07;18.08;;;7.25;;
56299;SDS011;42209;6.376;-10.782;2023-02-16T12:32:46;20.80;;;7.40;;
56299;SDS011;42209;6.376;-10.782;2023-02-16T12:35:47;13.20;;;6.38;;
56299;SDS011;42209;6.376;-10.782;2023-02-16T12:39:13;20.67;;;7.05;;
56299;SDS011;42209;6.376;-10.782;2023-02-16T12:44:17;19.90;;;6.65;;
56299;SDS011;42209;6.376;-10.782;2023-02-16T12:47:03;20.00;;;8.05;;
56299;SDS011;42209;6.376;-10.782;2023-02-16T12:52:34;13.70;;;7.35;;
56299;SDS011;42209;6.376;-10.782;2023-02-16T12:55:20;17.90;;;6.47;;
56299;SDS011;42209;6.376;-10.782;2023-02-16T12:58:15;13.38;;;6.65;;
56299;SDS011;42209;6.376;-10.782;2023-02-16T13:00:47;15.77;;;6.93;;
56299;SDS011;42209;6.376;-10.782;2023-02-16T13:11:22;16.30;;;6.65;;
56299;SDS011;42209;6.376;-10.782;2023-02-16T13:13:51;13.55;;;7.15;;
56299;SDS011;42209;6.376;-10.782;2023-02-16T13:16:34;14.82;;;6.68;;
56299;SDS011;42209;6.376;-10.782;2023-02-16T13:19:13;15.50;;;6.88;;
56299;SDS011;42209;6.376;-10.782;2023-02-16T13:24:27;14.13;;;7.60;;
56299;SDS011;42209;6.376;-10.782;2023-02-16T13:38:55;16.38;;;6.32;;
56299;SDS011;42209;6.376;-10.782;2023-02-16T13:44:19;23.83;;;6.75;;
56299;SDS011;42209;6.376;-10.782;2023-02-16T13:46:51;17.15;;;7.30;;
56299;SDS011;42209;6.376;-10.782;2023-02-16T13:49:36;18.13;;;6.50;;
56299;SDS011;42209;6.376;-10.782;2023-02-16T13:52:06;13.85;;;6.72;;
56299;SDS011;42209;6.376;-10.782;2023-02-16T13:54:54;17.00;;;6.67;;
56299;SDS011;42209;6.376;-10.782;2023-02-16T14:00:51;16.80;;;6.28;;
56299;SDS011;42209;6.376;-10.782;2023-02-16T14:05:49;18.08;;;6.75;;
56299;SDS011;42209;6.376;-10.782;2023-02-16T14:08:40;17.42;;;7.15;;
56299;SDS011;42209;6.376;-10.782;2023-02-16T14:11:10;14.98;;;6.43;;
56299;SDS011;42209;6.376;-10.782;2023-02-16T14:18:52;19.13;;;6.78;;
56299;SDS011;42209;6.376;-10.782;2023-02-16T14:24:05;17.73;;;7.47;;
56299;SDS011;42209;6.376;-10.782;2023-02-16T14:29:39;16.33;;;6.90;;
56299;SDS011;42209;6.376;-10.782;2023-02-16T14:32:30;18.75;;;7.68;;
56299;SDS011;42209;6.376;-10.782;2023-02-16T14:35:07;19.45;;;6.63;;
56299;SDS011;42209;6.376;-10.782;2023-02-16T14:37:50;21.10;;;7.18;;
56299;SDS011;42209;6.376;-10.782;2023-02-16T14:43:31;22.80;;;6.72;;
56299;SDS011;42209;6.376;-10.782;2023-02-16T14:48:58;21.65;;;7.10;;
56299;SDS011;42209;6.376;-10.782;2023-02-16T14:54:55;16.02;;;7.05;;
56299;SDS011;42209;6.376;-10.782;2023-02-16T15:03:44;16.20;;;6.63;;
56299;SDS011;42209;6.376;-10.782;2023-02-16T15:05:54;19.50;;;7.03;;
56299;SDS011;42209;6.376;-10.782;2023-02-16T15:08:28;16.45;;;6.78;;
56299;SDS011;42209;6.376;-10.782;2023-02-16T15:13:48;17.27;;;6.25;;
56299;SDS011;42209;6.376;-10.782;2023-02-16T15:16:17;16.08;;;6.85;;
56299;SDS011;42209;6.376;-10.782;2023-02-16T15:18:52;16.25;;;5.90;;
56299;SDS011;42209;6.376;-10.782;2023-02-16T15:21:24;17.45;;;7.22;;
56299;SDS011;42209;6.376;-10.782;2023-02-16T15:23:55;21.05;;;6.53;;
56299;SDS011;42209;6.376;-10.782;2023-02-16T15:26:26;18.95;;;6.78;;
56299;SDS011;42209;6.376;-10.782;2023-02-16T15:29:02;14.63;;;6.80;;
56299;SDS011;42209;6.376;-10.782;2023-02-16T15:31:42;15.40;;;7.10;;
56299;SDS011;42209;6.376;-10.782;2023-02-16T15:34:12;17.05;;;6.53;;
56299;SDS011;42209;6.376;-10.782;2023-02-16T15:36:52;18.02;;;6.32;;
56299;SDS011;42209;6.376;-10.782;2023-02-16T15:39:28;18.95;;;6.25;;
56299;SDS011;42209;6.376;-10.782;2023-02-16T15:42:22;15.63;;;6.38;;
56299;SDS011;42209;6.376;-10.782;2023-02-16T15:44:53;16.77;;;6.22;;
56299;SDS011;42209;6.376;-10.782;2023-02-16T15:47:23;19.48;;;7.40;;
56299;SDS011;42209;6.376;-10.782;2023-02-16T15:49:52;20.05;;;6.60;;
56299;SDS011;42209;6.376;-10.782;2023-02-16T15:54:59;20.20;;;7.32;;
56299;SDS011;42209;6.376;-10.782;2023-02-16T15:57:33;20.98;;;6.63;;
56299;SDS011;42209;6.376;-10.782;2023-02-16T16:00:15;21.30;;;7.60;;
56299;SDS011;42209;6.376;-10.782;2023-02-16T16:02:50;16.15;;;5.70;;
56299;SDS011;42209;6.376;-10.782;2023-02-16T16:05:22;18.50;;;6.28;;
56299;SDS011;42209;6.376;-10.782;2023-02-16T16:07:53;16.08;;;6.55;;
56299;SDS011;42209;6.376;-10.782;2023-02-16T16:10:24;19.10;;;7.22;;
56299;SDS011;42209;6.376;-10.782;2023-02-16T16:12:59;17.23;;;6.25;;
56299;SDS011;42209;6.376;-10.782;2023-02-16T16:15:35;17.83;;;6.47;;
56299;SDS011;42209;6.376;-10.782;2023-02-16T16:18:30;16.33;;;6.88;;
56299;SDS011;42209;6.376;-10.782;2023-02-16T16:21:02;15.38;;;6.28;;
56299;SDS011;42209;6.376;-10.782;2023-02-16T16:23:58;18.65;;;6.90;;
56299;SDS011;42209;6.376;-10.782;2023-02-16T16:26:31;21.15;;;8.02;;
56299;SDS011;42209;6.376;-10.782;2023-02-16T16:29:02;16.63;;;6.22;;
56299;SDS011;42209;6.376;-10.782;2023-02-16T16:34:02;18.52;;;7.05;;
56299;SDS011;42209;6.376;-10.782;2023-02-16T16:36:56;17.20;;;6.13;;
56299;SDS011;42209;6.376;-10.782;2023-02-16T16:39:25;12.88;;;5.15;;
56299;SDS011;42209;6.376;-10.782;2023-02-16T16:44:34;18.70;;;6.60;;
56299;SDS011;42209;6.376;-10.782;2023-02-16T16:47:23;14.65;;;6.40;;
56299;SDS011;42209;6.376;-10.782;2023-02-16T16:49:55;17.42;;;6.72;;
56299;SDS011;42209;6.376;-10.782;2023-02-16T16:52:38;18.73;;;6.80;;
56299;SDS011;42209;6.376;-10.782;2023-02-16T16:57:49;16.85;;;6.68;;
56299;SDS011;42209;6.376;-10.782;2023-02-16T17:00:19;17.95;;;7.43;;
56299;SDS011;42209;6.376;-10.782;2023-02-16T17:02:48;17.35;;;6.60;;
56299;SDS011;42209;6.376;-10.782;2023-02-16T17:05:17;17.20;;;8.07;;
56299;SDS011;42209;6.376;-10.782;2023-02-16T17:07:46;16.25;;;6.15;;
56299;SDS011;42209;6.376;-10.782;2023-02-16T17:10:15;21.33;;;7.40;;
56299;SDS011;42209;6.376;-10.782;2023-02-16T17:12:45;22.65;;;6.47;;
56299;SDS011;42209;6.376;-10.782;2023-02-16T17:15:23;16.90;;;7.22;;
56299;SDS011;42209;6.376;-10.782;2023-02-16T17:18:02;18.73;;;7.18;;
56299;SDS011;42209;6.376;-10.782;2023-02-16T17:20:31;19.67;;;6.70;;
56299;SDS011;42209;6.376;-10.782;2023-02-16T17:22:59;16.23;;;6.93;;
56299;SDS011;42209;6.376;-10.782;2023-02-16T17:25:28;16.50;;;7.53;;
56299;SDS011;42209;6.376;-10.782;2023-02-16T17:27:57;16.23;;;6.50;;
56299;SDS011;42209;6.376;-10.782;2023-02-16T17:30:25;14.88;;;7.05;;
56299;SDS011;42209;6.376;-10.782;2023-02-16T17:32:53;11.85;;;5.70;;
56299;SDS011;42209;6.376;-10.782;2023-02-16T17:35:22;16.38;;;6.25;;
56299;SDS011;42209;6.376;-10.782;2023-02-16T17:37:50;16.08;;;6.50;;
56299;SDS011;42209;6.376;-10.782;2023-02-16T17:40:20;16.02;;;6.70;;
56299;SDS011;42209;6.376;-10.782;2023-02-16T17:42:50;18.63;;;7.72;;
56299;SDS011;42209;6.376;-10.782;2023-02-16T17:45:19;15.25;;;6.55;;
56299;SDS011;42209;6.376;-10.782;2023-02-16T17:47:49;13.60;;;6.82;;
56299;SDS011;42209;6.376;-10.782;2023-02-16T17:50:18;18.95;;;7.22;;
56299;SDS011;42209;6.376;-10.782;2023-02-16T17:52:47;17.80;;;6.85;;
56299;SDS011;42209;6.376;-10.782;2023-02-16T17:55:15;17.60;;;6.85;;
56299;SDS011;42209;6.376;-10.782;2023-02-16T17:57:44;16.85;;;6.70;;
56299;SDS011;42209;6.376;-10.782;2023-02-16T18:00:12;15.93;;;6.93;;
56299;SDS011;42209;6.376;-10.782;2023-02-16T18:02:45;19.45;;;7.25;;
56299;SDS011;42209;6.376;-10.782;2023-02-16T18:05:13;13.82;;;6.63;;
56299;SDS011;42209;6.376;-10.782;2023-02-16T18:10:28;11.13;;;6.05;;